Time,TemperatureF,DewpointF,PressureIn,WindDirection,WindDirectionDegrees,WindSpeedMPH,WindSpeedGustMPH,Humidity,HourlyPrecipIn,Conditions,Clouds,dailyrainin,SoftwareType,DateUTC
2013-06-13 00:01:00,58.0,45.0,-100.00,WSW,246,11.0,-999.0,62,0.00,,,-99.99,,2013-06-13 07:01:00,
2013-06-13 00:11:00,58.0,45.0,-100.00,WSW,246,11.0,-999.0,62,0.00,,,-99.99,,2013-06-13 07:11:00,
2013-06-13 00:22:00,58.0,45.0,-100.00,WSW,246,11.0,-999.0,62,0.00,,,-99.99,,2013-06-13 07:22:00,
2013-06-13 00:33:00,58.0,45.0,-100.00,WSW,246,11.0,-999.0,62,0.00,,,-99.99,,2013-06-13 07:33:00,
2013-06-13 00:42:00,58.0,45.0,-100.00,WSW,246,11.0,-999.0,62,0.00,,,-99.99,,2013-06-13 07:42:00,
2013-06-13 01:01:00,56.0,45.0,-100.00,WSW,256,11.0,-999.0,67,0.00,,,-99.99,,2013-06-13 08:01:00,
2013-06-13 01:11:00,56.0,45.0,-100.00,WSW,256,11.0,-999.0,67,0.00,,,-99.99,,2013-06-13 08:11:00,
2013-06-13 01:22:00,56.0,45.0,-100.00,WSW,256,11.0,-999.0,67,0.00,,,-99.99,,2013-06-13 08:22:00,
2013-06-13 01:32:00,56.0,45.0,-100.00,WSW,256,11.0,-999.0,67,0.00,,,-99.99,,2013-06-13 08:32:00,
2013-06-13 01:42:00,56.0,45.0,-100.00,WSW,256,11.0,-999.0,67,0.00,,,-99.99,,2013-06-13 08:42:00,
2013-06-13 02:01:00,56.0,46.0,-100.00,West,270,14.0,-999.0,68,0.00,,,-99.99,,2013-06-13 09:01:00,
2013-06-13 02:11:00,56.0,46.0,-100.00,West,270,14.0,-999.0,68,0.00,,,-99.99,,2013-06-13 09:11:00,
2013-06-13 02:22:00,56.0,46.0,-100.00,West,270,14.0,-999.0,68,0.00,,,-99.99,,2013-06-13 09:22:00,
2013-06-13 02:32:00,56.0,46.0,-100.00,West,270,14.0,-999.0,68,0.00,,,-99.99,,2013-06-13 09:32:00,
2013-06-13 02:42:00,56.0,46.0,-100.00,West,270,14.0,-999.0,68,0.00,,,-99.99,,2013-06-13 09:42:00,
2013-06-13 03:01:00,56.0,46.0,-100.00,West,276,11.0,-999.0,68,0.00,,,-99.99,,2013-06-13 10:01:00,
2013-06-13 03:11:00,56.0,46.0,-100.00,West,276,11.0,-999.0,68,0.00,,,-99.99,,2013-06-13 10:11:00,
2013-06-13 03:22:00,56.0,46.0,-100.00,West,276,11.0,-999.0,68,0.00,,,-99.99,,2013-06-13 10:22:00,
2013-06-13 03:33:00,56.0,46.0,-100.00,West,276,11.0,-999.0,68,0.00,,,-99.99,,2013-06-13 10:33:00,
2013-06-13 03:42:00,56.0,46.0,-100.00,West,276,11.0,-999.0,68,0.00,,,-99.99,,2013-06-13 10:42:00,
2013-06-13 04:01:00,54.0,45.0,-100.00,WSW,257,9.0,-999.0,69,0.00,,,-99.99,,2013-06-13 11:01:00,
2013-06-13 04:11:00,54.0,45.0,-100.00,WSW,257,9.0,-999.0,69,0.00,,,-99.99,,2013-06-13 11:11:00,
2013-06-13 04:23:00,54.0,45.0,-100.00,WSW,257,9.0,-999.0,69,0.00,,,-99.99,,2013-06-13 11:23:00,
2013-06-13 04:32:00,54.0,45.0,-100.00,WSW,257,9.0,-999.0,69,0.00,,,-99.99,,2013-06-13 11:32:00,
2013-06-13 04:42:00,54.0,45.0,-100.00,WSW,257,9.0,-999.0,69,0.00,,,-99.99,,2013-06-13 11:42:00,
2013-06-13 05:01:00,54.0,44.0,-100.00,West,265,10.0,-999.0,68,0.00,,,-99.99,,2013-06-13 12:01:00,
2013-06-13 05:11:00,54.0,44.0,-100.00,West,265,10.0,-999.0,68,0.00,,,-99.99,,2013-06-13 12:11:00,
2013-06-13 05:22:00,54.0,44.0,-100.00,West,265,10.0,-999.0,68,0.00,,,-99.99,,2013-06-13 12:22:00,
2013-06-13 05:34:00,54.0,44.0,-100.00,West,265,10.0,-999.0,68,0.00,,,-99.99,,2013-06-13 12:34:00,
2013-06-13 05:42:00,54.0,44.0,-100.00,West,265,10.0,-999.0,68,0.00,,,-99.99,,2013-06-13 12:42:00,
2013-06-13 06:02:00,54.0,-99.9,-100.00,North,-999,-999.0,-999.0,-999,-99.99,,,-99.99,,2013-06-13 13:02:00,
2013-06-13 06:12:00,54.0,-99.9,-100.00,North,-999,-999.0,-999.0,-999,-99.99,,,-99.99,,2013-06-13 13:12:00,
2013-06-13 06:22:00,54.0,-99.9,-100.00,North,-999,-999.0,-999.0,-999,-99.99,,,-99.99,,2013-06-13 13:22:00,
2013-06-13 06:33:00,54.0,-99.9,-100.00,North,-999,-999.0,-999.0,-999,-99.99,,,-99.99,,2013-06-13 13:33:00,
2013-06-13 06:43:00,54.0,-99.9,-100.00,North,-999,-999.0,-999.0,-999,-99.99,,,-99.99,,2013-06-13 13:43:00,
2013-06-13 07:02:00,54.0,43.0,-100.00,WSW,239,6.0,-999.0,66,0.00,,,-99.99,,2013-06-13 14:02:00,
2013-06-13 07:11:00,54.0,43.0,-100.00,WSW,239,6.0,-999.0,66,0.00,,,-99.99,,2013-06-13 14:11:00,
2013-06-13 07:22:00,54.0,43.0,-100.00,WSW,239,6.0,-999.0,66,0.00,,,-99.99,,2013-06-13 14:22:00,
2013-06-13 07:33:00,54.0,43.0,-100.00,WSW,239,6.0,-999.0,66,0.00,,,-99.99,,2013-06-13 14:33:00,
2013-06-13 07:43:00,54.0,43.0,-100.00,WSW,239,6.0,-999.0,66,0.00,,,-99.99,,2013-06-13 14:43:00,
2013-06-13 08:12:00,58.0,43.0,-100.00,WSW,250,9.0,-999.0,58,0.00,,,-99.99,,2013-06-13 15:12:00,
2013-06-13 08:21:00,58.0,43.0,-100.00,WSW,250,9.0,-999.0,58,0.00,,,-99.99,,2013-06-13 15:21:00,
2013-06-13 08:33:00,58.0,43.0,-100.00,WSW,250,9.0,-999.0,58,0.00,,,-99.99,,2013-06-13 15:33:00,
2013-06-13 08:43:00,58.0,43.0,-100.00,WSW,250,9.0,-999.0,58,0.00,,,-99.99,,2013-06-13 15:43:00,
2013-06-13 09:01:00,62.0,43.0,-100.00,West,259,8.0,-999.0,51,0.00,,,-99.99,,2013-06-13 16:01:00,
2013-06-13 09:11:00,62.0,43.0,-100.00,West,259,8.0,-999.0,51,0.00,,,-99.99,,2013-06-13 16:11:00,
2013-06-13 09:22:00,62.0,43.0,-100.00,West,259,8.0,-999.0,51,0.00,,,-99.99,,2013-06-13 16:22:00,
2013-06-13 09:33:00,62.0,43.0,-100.00,West,259,8.0,-999.0,51,0.00,,,-99.99,,2013-06-13 16:33:00,
2013-06-13 09:43:00,62.0,43.0,-100.00,West,259,8.0,-999.0,51,0.00,,,-99.99,,2013-06-13 16:43:00,
2013-06-13 10:02:00,65.0,44.0,-100.00,West,267,10.0,-999.0,47,0.00,,,-99.99,,2013-06-13 17:02:00,
2013-06-13 10:11:00,65.0,44.0,-100.00,West,267,10.0,-999.0,47,0.00,,,-99.99,,2013-06-13 17:11:00,
2013-06-13 10:24:00,65.0,44.0,-100.00,West,267,10.0,-999.0,47,0.00,,,-99.99,,2013-06-13 17:24:00,
2013-06-13 10:32:00,65.0,44.0,-100.00,West,267,10.0,-999.0,47,0.00,,,-99.99,,2013-06-13 17:32:00,
2013-06-13 10:43:00,65.0,44.0,-100.00,West,267,10.0,-999.0,47,0.00,,,-99.99,,2013-06-13 17:43:00,
2013-06-13 11:11:00,69.0,44.0,-100.00,West,268,8.0,-999.0,41,0.00,,,-99.99,,2013-06-13 18:11:00,
2013-06-13 11:22:00,69.0,44.0,-100.00,West,268,8.0,-999.0,41,0.00,,,-99.99,,2013-06-13 18:22:00,
2013-06-13 11:33:00,69.0,44.0,-100.00,West,268,8.0,-999.0,41,0.00,,,-99.99,,2013-06-13 18:33:00,
2013-06-13 11:43:00,69.0,44.0,-100.00,West,268,8.0,-999.0,41,0.00,,,-99.99,,2013-06-13 18:43:00,
2013-06-13 12:11:00,73.0,42.0,-100.00,West,276,6.0,-999.0,33,0.00,,,-99.99,,2013-06-13 19:11:00,
2013-06-13 12:22:00,73.0,42.0,-100.00,West,276,6.0,-999.0,33,0.00,,,-99.99,,2013-06-13 19:22:00,
2013-06-13 12:43:00,73.0,42.0,-100.00,West,276,6.0,-999.0,33,0.00,,,-99.99,,2013-06-13 19:43:00,
2013-06-13 14:11:00,78.0,44.0,-100.00,West,263,6.0,-999.0,30,0.00,,,-99.99,,2013-06-13 21:11:00,
2013-06-13 14:22:00,78.0,44.0,-100.00,West,263,6.0,-999.0,30,0.00,,,-99.99,,2013-06-13 21:22:00,
2013-06-13 14:34:00,78.0,44.0,-100.00,West,263,6.0,-999.0,30,0.00,,,-99.99,,2013-06-13 21:34:00,
2013-06-13 14:43:00,78.0,44.0,-100.00,West,263,6.0,-999.0,30,0.00,,,-99.99,,2013-06-13 21:43:00,
2013-06-13 15:01:00,80.0,45.0,-100.00,WSW,255,8.0,-999.0,29,0.00,,,-99.99,,2013-06-13 22:01:00,
2013-06-13 15:11:00,80.0,45.0,-100.00,WSW,255,8.0,-999.0,29,0.00,,,-99.99,,2013-06-13 22:11:00,
2013-06-13 15:22:00,80.0,45.0,-100.00,WSW,255,8.0,-999.0,29,0.00,,,-99.99,,2013-06-13 22:22:00,
2013-06-13 15:32:00,80.0,45.0,-100.00,WSW,255,8.0,-999.0,29,0.00,,,-99.99,,2013-06-13 22:32:00,
2013-06-13 15:42:00,80.0,45.0,-100.00,WSW,255,8.0,-999.0,29,0.00,,,-99.99,,2013-06-13 22:42:00,
2013-06-13 16:11:00,80.0,43.0,-100.00,West,266,14.0,-999.0,27,0.00,,,-99.99,,2013-06-13 23:11:00,
2013-06-13 16:22:00,80.0,43.0,-100.00,West,266,14.0,-999.0,27,0.00,,,-99.99,,2013-06-13 23:22:00,
2013-06-13 16:32:00,80.0,43.0,-100.00,West,266,14.0,-999.0,27,0.00,,,-99.99,,2013-06-13 23:32:00,
2013-06-13 16:43:00,80.0,43.0,-100.00,West,266,14.0,-999.0,27,0.00,,,-99.99,,2013-06-13 23:43:00,
2013-06-13 17:11:00,80.0,43.0,-100.00,West,270,15.0,-999.0,27,0.00,,,-99.99,,2013-06-14 00:11:00,
2013-06-13 17:22:00,80.0,43.0,-100.00,West,270,15.0,-999.0,27,0.00,,,-99.99,,2013-06-14 00:22:00,
2013-06-13 17:33:00,80.0,43.0,-100.00,West,270,15.0,-999.0,27,0.00,,,-99.99,,2013-06-14 00:33:00,
2013-06-13 17:43:00,80.0,43.0,-100.00,West,270,15.0,-999.0,27,0.00,,,-99.99,,2013-06-14 00:43:00,
2013-06-13 18:11:00,79.0,43.0,-100.00,West,267,14.0,-999.0,28,0.00,,,-99.99,,2013-06-14 01:11:00,
2013-06-13 18:22:00,79.0,43.0,-100.00,West,267,14.0,-999.0,28,0.00,,,-99.99,,2013-06-14 01:22:00,
2013-06-13 18:32:00,79.0,43.0,-100.00,West,267,14.0,-999.0,28,0.00,,,-99.99,,2013-06-14 01:32:00,
2013-06-13 18:43:00,79.0,43.0,-100.00,West,267,14.0,-999.0,28,0.00,,,-99.99,,2013-06-14 01:43:00,
2013-06-13 19:02:00,78.0,46.0,-100.00,West,273,12.0,-999.0,32,0.00,,,-99.99,,2013-06-14 02:02:00,
2013-06-13 19:11:00,78.0,46.0,-100.00,West,273,12.0,-999.0,32,0.00,,,-99.99,,2013-06-14 02:11:00,
2013-06-13 19:22:00,78.0,46.0,-100.00,West,273,12.0,-999.0,32,0.00,,,-99.99,,2013-06-14 02:22:00,
2013-06-13 19:32:00,78.0,46.0,-100.00,West,273,12.0,-999.0,32,0.00,,,-99.99,,2013-06-14 02:32:00,
2013-06-13 19:43:00,78.0,46.0,-100.00,West,273,12.0,-999.0,32,0.00,,,-99.99,,2013-06-14 02:43:00,
2013-06-13 20:02:00,75.0,47.0,-100.00,SSW,196,4.0,-999.0,37,0.00,,,-99.99,,2013-06-14 03:02:00,
2013-06-13 20:11:00,75.0,47.0,-100.00,SSW,196,4.0,-999.0,37,0.00,,,-99.99,,2013-06-14 03:11:00,
2013-06-13 20:22:00,75.0,47.0,-100.00,SSW,196,4.0,-999.0,37,0.00,,,-99.99,,2013-06-14 03:22:00,
2013-06-13 20:34:00,75.0,47.0,-100.00,SSW,196,4.0,-999.0,37,0.00,,,-99.99,,2013-06-14 03:34:00,
2013-06-13 20:43:00,75.0,47.0,-100.00,SSW,196,4.0,-999.0,37,0.00,,,-99.99,,2013-06-14 03:43:00,
2013-06-13 21:12:00,69.0,49.0,-100.00,SSW,207,5.0,-999.0,49,0.00,,,-99.99,,2013-06-14 04:12:00,
2013-06-13 21:22:00,69.0,49.0,-100.00,SSW,207,5.0,-999.0,49,0.00,,,-99.99,,2013-06-14 04:22:00,
2013-06-13 21:33:00,69.0,49.0,-100.00,SSW,207,5.0,-999.0,49,0.00,,,-99.99,,2013-06-14 04:33:00,
2013-06-13 21:43:00,69.0,49.0,-100.00,SSW,207,5.0,-999.0,49,0.00,,,-99.99,,2013-06-14 04:43:00,
2013-06-13 22:02:00,65.0,50.0,-100.00,WSW,242,4.0,-999.0,58,0.00,,,-99.99,,2013-06-14 05:02:00,
2013-06-13 22:11:00,65.0,50.0,-100.00,WSW,242,4.0,-999.0,58,0.00,,,-99.99,,2013-06-14 05:11:00,
2013-06-13 22:22:00,65.0,50.0,-100.00,WSW,242,4.0,-999.0,58,0.00,,,-99.99,,2013-06-14 05:22:00,
2013-06-13 22:33:00,65.0,50.0,-100.00,WSW,242,4.0,-999.0,58,0.00,,,-99.99,,2013-06-14 05:33:00,
2013-06-13 22:42:00,65.0,50.0,-100.00,WSW,242,4.0,-999.0,58,0.00,,,-99.99,,2013-06-14 05:42:00,
2013-06-13 23:02:00,65.0,50.0,-100.00,SW,224,4.0,-999.0,58,0.00,,,-99.99,,2013-06-14 06:02:00,
2013-06-13 23:12:00,65.0,50.0,-100.00,SW,224,4.0,-999.0,58,0.00,,,-99.99,,2013-06-14 06:12:00,
2013-06-13 23:22:00,65.0,50.0,-100.00,SW,224,4.0,-999.0,58,0.00,,,-99.99,,2013-06-14 06:22:00,
2013-06-13 23:33:00,65.0,50.0,-100.00,SW,224,4.0,-999.0,58,0.00,,,-99.99,,2013-06-14 06:33:00,
2013-06-13 23:43:00,65.0,50.0,-100.00,SW,224,4.0,-999.0,58,0.00,,,-99.99,,2013-06-14 06:43:00,